createdAt,value
2023-01-29T00:02:13.730Z,101110.34
2023-01-29T00:04:40.491Z,101110.34
2023-01-29T00:07:08.494Z,101105.38
2023-01-29T00:09:35.369Z,101107.09
2023-01-29T00:12:02.140Z,101098.00
2023-01-29T00:14:29.103Z,101091.47
2023-01-29T00:16:55.876Z,101081.50
2023-01-29T00:19:22.651Z,101080.72
2023-01-29T00:21:49.484Z,101082.47
2023-01-29T00:24:16.401Z,101085.13
2023-01-29T00:26:43.232Z,101078.41
2023-01-29T00:29:09.957Z,101079.28
2023-01-29T00:31:37.031Z,101072.56
2023-01-29T00:34:03.866Z,101074.19
2023-01-29T00:36:30.756Z,101067.50
2023-01-29T00:39:00.495Z,101072.41
2023-01-29T00:41:51.477Z,101073.75
2023-01-29T00:44:37.366Z,101068.56
2023-01-29T00:47:25.251Z,101062.53
2023-01-29T00:49:52.111Z,101069.16
2023-01-29T00:52:25.004Z,101060.63
2023-01-29T00:54:58.131Z,101052.81
2023-01-29T00:57:27.974Z,101044.53
2023-01-29T00:59:54.981Z,101045.50
2023-01-29T01:02:40.701Z,101051.44
2023-01-29T01:05:13.917Z,101046.47
2023-01-29T01:07:41.233Z,101044.91
2023-01-29T01:10:22.380Z,101040.00
2023-01-29T01:13:06.322Z,101042.50
2023-01-29T01:15:39.755Z,101036.66
2023-01-29T01:18:07.418Z,101036.66
2023-01-29T01:20:36.820Z,101038.41
2023-01-29T01:23:04.072Z,101055.03
2023-01-29T01:25:30.951Z,101049.31
2023-01-29T01:30:26.648Z,101052.47
2023-01-29T01:32:53.507Z,101057.53
2023-01-29T01:35:20.284Z,101056.69
2023-01-29T01:37:47.073Z,101067.50
2023-01-29T01:40:19.520Z,101063.22
2023-01-29T01:42:53.080Z,101059.84
2023-01-29T01:45:31.534Z,101052.22
2023-01-29T01:48:19.117Z,101052.81
2023-01-29T01:51:03.342Z,101045.88
2023-01-29T01:53:38.442Z,101039.13
2023-01-29T01:56:14.054Z,101039.78
2023-01-29T01:58:50.359Z,101029.63
2023-01-29T02:01:18.809Z,101027.03
2023-01-29T02:04:17.049Z,101028.69
2023-01-29T02:07:03.432Z,101044.31
2023-01-29T02:09:42.232Z,101033.66
2023-01-29T02:12:13.292Z,101030.28
2023-01-29T02:14:42.493Z,101042.75
2023-01-29T02:17:19.547Z,101040.09
2023-01-29T02:20:08.004Z,101039.41
2023-01-29T02:23:34.895Z,101032.88
2023-01-29T02:26:23.538Z,101040.94
2023-01-29T02:29:30.386Z,101040.94
2023-01-29T02:32:22.184Z,101042.66
2023-01-29T02:35:27.601Z,101040.16
2023-01-29T02:38:17.993Z,101037.69
2023-01-29T02:41:20.389Z,101037.75
2023-01-29T02:44:07.815Z,101034.34
2023-01-29T02:46:53.840Z,101050.97
2023-01-29T02:49:38.279Z,101058.56
2023-01-29T02:52:20.739Z,101061.84
2023-01-29T02:54:55.700Z,101076.03
2023-01-29T02:57:32.255Z,101082.69
2023-01-29T03:00:16.669Z,101084.44
2023-01-29T03:02:55.387Z,101082.69
2023-01-29T03:05:33.602Z,101100.03
2023-01-29T03:08:10.103Z,101101.78
2023-01-29T03:10:50.789Z,101095.28
2023-01-29T03:13:41.233Z,101095.28
2023-01-29T03:16:18.983Z,101091.81
2023-01-29T03:19:03.988Z,101077.84
2023-01-29T03:21:59.204Z,101078.84
2023-01-29T03:25:06.633Z,101082.03
2023-01-29T03:28:18.878Z,101068.72
2023-01-29T03:31:14.471Z,101067.00
2023-01-29T03:34:09.664Z,101057.09
2023-01-29T03:36:55.631Z,101063.16
2023-01-29T03:39:28.460Z,101059.97
2023-01-29T03:42:49.108Z,101054.50
2023-01-29T03:45:43.122Z,101047.53
2023-01-29T03:48:36.949Z,101050.09
2023-01-29T03:51:15.561Z,101047.53
2023-01-29T03:54:35.035Z,101058.47
2023-01-29T03:57:36.518Z,101068.13
2023-01-29T04:00:21.228Z,101072.94
2023-01-29T04:03:15.747Z,101067.97
2023-01-29T04:06:09.523Z,101070.53
2023-01-29T04:08:55.645Z,101057.59
2023-01-29T04:11:24.938Z,101053.59
2023-01-29T04:13:52.506Z,101048.69
2023-01-29T04:16:28.260Z,101048.03
2023-01-29T04:18:55.865Z,101048.13
2023-01-29T04:21:22.930Z,101043.22
2023-01-29T04:23:49.637Z,101040.06
2023-01-29T04:26:49.162Z,101032.66
2023-01-29T04:29:30.059Z,101038.31
2023-01-29T04:32:20.768Z,101030.00
2023-01-29T04:35:26.806Z,101021.69
2023-01-29T04:38:11.130Z,101017.47
2023-01-29T04:41:01.576Z,101014.97
2023-01-29T04:43:49.524Z,101009.97
2023-01-29T04:46:46.816Z,101004.91
2023-01-29T04:49:20.933Z,101012.38
2023-01-29T04:52:06.165Z,101001.63
2023-01-29T04:55:01.525Z,100995.88
2023-01-29T04:58:04.299Z,101003.34
2023-01-29T05:00:40.087Z,100998.28
2023-01-29T05:03:09.784Z,100994.28
2023-01-29T05:05:43.776Z,101002.69
2023-01-29T05:08:16.095Z,100999.34
2023-01-29T05:10:43.201Z,100996.16
2023-01-29T05:13:14.698Z,100988.69
2023-01-29T05:16:41.807Z,100989.63
2023-01-29T05:19:14.911Z,100995.88
2023-01-29T05:21:46.389Z,100995.13
2023-01-29T05:24:18.578Z,100992.72
2023-01-29T05:27:08.415Z,100984.56
2023-01-29T05:29:35.430Z,100985.31
2023-01-29T05:32:03.501Z,100992.88
2023-01-29T05:34:30.666Z,100984.66
2023-01-29T05:36:57.408Z,100988.88
2023-01-29T05:39:24.243Z,100992.19
2023-01-29T05:41:51.847Z,100997.38
2023-01-29T05:44:18.572Z,100982.44
2023-01-29T05:46:46.078Z,100988.34
2023-01-29T05:49:13.441Z,100982.59
2023-01-29T05:51:40.179Z,100987.75
2023-01-29T05:54:06.953Z,100987.75
2023-01-29T05:56:33.699Z,100989.56
2023-01-29T05:59:00.492Z,100983.81
2023-01-29T06:01:27.307Z,100991.38
2023-01-29T06:03:54.086Z,100979.81
2023-01-29T06:06:21.007Z,100979.88
2023-01-29T06:08:48.034Z,100986.59
2023-01-29T06:11:18.042Z,100980.25
2023-01-29T06:13:45.847Z,100976.84
2023-01-29T06:16:14.141Z,100975.03
2023-01-29T06:18:41.965Z,100972.53
2023-01-29T06:21:13.071Z,100964.09
2023-01-29T06:23:40.571Z,100959.88
2023-01-29T06:26:12.448Z,100969.84
2023-01-29T06:28:39.946Z,100965.84
2023-01-29T06:31:37.319Z,100980.78
2023-01-29T06:33:55.047Z,100990.75
2023-01-29T06:36:21.836Z,100999.97
2023-01-29T06:38:48.689Z,101003.41
2023-01-29T06:41:18.855Z,101013.53
2023-01-29T06:43:46.612Z,101017.75
2023-01-29T06:46:14.019Z,101020.53
2023-01-29T06:48:40.727Z,101024.84
2023-01-29T06:51:10.521Z,101035.94
2023-01-29T06:53:39.576Z,101044.44
2023-01-29T06:56:07.451Z,101047.06
2023-01-29T06:58:37.093Z,101048.94
2023-01-29T07:01:10.379Z,101036.63
2023-01-29T07:03:37.837Z,101038.38
2023-01-29T07:06:06.005Z,101046.97
2023-01-29T07:08:36.635Z,101043.03
2023-01-29T07:11:04.413Z,101041.63
2023-01-29T07:13:31.215Z,101033.47
2023-01-29T07:16:03.176Z,101033.06
2023-01-29T07:18:30.978Z,101031.59
2023-01-29T07:20:58.460Z,101031.75
2023-01-29T07:23:25.381Z,101017.75
2023-01-29T07:25:52.158Z,101004.75
2023-01-29T07:28:20.603Z,101004.22
2023-01-29T07:30:47.540Z,101009.47
2023-01-29T07:33:14.390Z,101006.44
2023-01-29T07:35:43.432Z,101010.91
2023-01-29T07:38:11.414Z,101009.53
2023-01-29T07:40:38.471Z,101011.53
2023-01-29T07:43:08.031Z,101013.47
2023-01-29T07:45:37.583Z,101003.75
2023-01-29T07:48:06.253Z,101001.56
2023-01-29T07:50:35.465Z,101003.63
2023-01-29T07:53:03.024Z,101002.31
2023-01-29T07:55:31.218Z,100999.34
2023-01-29T07:58:00.920Z,101010.63
2023-01-29T08:00:29.585Z,101010.94
2023-01-29T08:03:04.515Z,101015.41
2023-01-29T08:05:31.281Z,101008.22
2023-01-29T08:08:06.488Z,101005.97
2023-01-29T08:10:34.726Z,101000.44
2023-01-29T08:13:03.065Z,101010.75
2023-01-29T08:15:30.762Z,100995.97
2023-01-29T08:17:58.493Z,101002.00
2023-01-29T08:20:26.193Z,101008.03
2023-01-29T08:23:06.312Z,101004.97
2023-01-29T08:25:34.598Z,100998.47
2023-01-29T08:28:02.151Z,101003.72
2023-01-29T08:30:32.723Z,100995.66
2023-01-29T08:32:59.574Z,100998.50
2023-01-29T08:35:27.238Z,101000.44
2023-01-29T08:38:01.220Z,101003.25
2023-01-29T08:40:31.814Z,101013.47
2023-01-29T08:43:09.607Z,101018.00
2023-01-29T08:45:40.799Z,101008.19
2023-01-29T08:48:09.045Z,101002.63
2023-01-29T08:50:37.153Z,101009.59
2023-01-29T08:53:08.324Z,101010.69
2023-01-29T08:55:40.921Z,101004.97
2023-01-29T08:58:10.747Z,101011.84
2023-01-29T09:00:38.244Z,101011.97
2023-01-29T09:03:07.586Z,101002.19
2023-01-29T09:05:39.630Z,101004.06
2023-01-29T09:08:08.665Z,100997.69
2023-01-29T09:10:36.307Z,100987.03
2023-01-29T09:13:03.129Z,100994.97
2023-01-29T09:15:30.113Z,100974.44
2023-01-29T09:17:56.872Z,100974.81
2023-01-29T09:20:23.756Z,100970.13
2023-01-29T09:22:53.465Z,100980.59
2023-01-29T09:25:20.448Z,100975.09
2023-01-29T09:27:47.145Z,100982.97
2023-01-29T09:30:14.324Z,100990.13
2023-01-29T09:32:53.344Z,100983.00
2023-01-29T09:35:24.409Z,100992.72
2023-01-29T09:37:52.078Z,100988.94
2023-01-29T09:40:38.338Z,100986.91
2023-01-29T09:43:16.465Z,100969.72
2023-01-29T09:45:56.702Z,100965.09
2023-01-29T09:48:28.909Z,100957.00
2023-01-29T09:51:00.421Z,100964.13
2023-01-29T09:53:47.575Z,100962.06
2023-01-29T09:56:21.169Z,100955.78
2023-01-29T09:58:48.294Z,100952.09
2023-01-29T10:01:31.739Z,100948.41
2023-01-29T10:04:29.006Z,100952.50
2023-01-29T10:07:42.374Z,100951.63
2023-01-29T10:10:24.104Z,100942.25
2023-01-29T10:13:17.743Z,100929.13
2023-01-29T10:15:59.709Z,100933.91
2023-01-29T10:18:54.227Z,100928.53
2023-01-29T10:21:36.386Z,100930.28
2023-01-29T10:24:41.819Z,100924.72
2023-01-29T10:27:17.468Z,100918.41
2023-01-29T10:29:48.745Z,100911.22
2023-01-29T10:32:23.416Z,100903.94
2023-01-29T10:35:12.304Z,100906.81
2023-01-29T10:37:43.451Z,100906.06
2023-01-29T10:40:24.136Z,100911.63
2023-01-29T10:43:08.755Z,100909.31
2023-01-29T10:46:37.330Z,100903.53
2023-01-29T10:49:29.879Z,100907.72
2023-01-29T10:52:33.905Z,100905.19
2023-01-29T10:55:29.851Z,100895.72
2023-01-29T10:58:38.094Z,100894.75
2023-01-29T11:01:04.862Z,100888.69
2023-01-29T11:03:34.070Z,100885.09
2023-01-29T11:06:21.722Z,100884.00
2023-01-29T11:09:11.478Z,100885.28
2023-01-29T11:11:48.597Z,100868.09
2023-01-29T11:14:51.649Z,100871.94
2023-01-29T11:17:26.349Z,100869.88
2023-01-29T11:19:57.734Z,100872.19
2023-01-29T11:22:30.108Z,100868.66
2023-01-29T11:25:10.584Z,100872.72
2023-01-29T11:28:10.248Z,100868.31
2023-01-29T11:30:41.578Z,100863.03
2023-01-29T11:33:23.705Z,100862.16
2023-01-29T11:35:52.518Z,100857.13
2023-01-29T11:38:28.404Z,100857.91
2023-01-29T11:41:22.130Z,100855.44
2023-01-29T11:43:48.858Z,100858.81
2023-01-29T11:46:16.377Z,100855.44
2023-01-29T11:48:51.532Z,100847.81
2023-01-29T11:51:29.183Z,100839.25
2023-01-29T11:54:04.226Z,100834.91
2023-01-29T11:56:46.717Z,100829.75
2023-01-29T11:59:44.114Z,100823.88
2023-01-29T12:02:36.118Z,100816.31
2023-01-29T12:05:25.003Z,100803.78
2023-01-29T12:08:00.634Z,100789.56
2023-01-29T12:10:40.809Z,100791.31
2023-01-29T12:13:10.763Z,100787.84
2023-01-29T12:15:39.737Z,100777.72
2023-01-29T12:18:41.847Z,100772.56
2023-01-29T12:21:26.828Z,100763.16
2023-01-29T12:24:07.059Z,100755.50
2023-01-29T12:26:41.874Z,100745.41
2023-01-29T12:29:34.784Z,100737.06
2023-01-29T12:32:39.269Z,100720.19
2023-01-29T12:35:24.591Z,100717.50
2023-01-29T12:38:17.815Z,100710.69
2023-01-29T12:40:55.921Z,100701.38
2023-01-29T12:43:35.996Z,100691.22
2023-01-29T12:46:07.384Z,100686.97
2023-01-29T12:48:42.101Z,100688.66
2023-01-29T12:51:16.775Z,100679.38
2023-01-29T12:54:10.690Z,100671.81
2023-01-29T12:56:47.044Z,100677.69
2023-01-29T12:59:29.310Z,100663.34
2023-01-29T13:02:24.282Z,100666.84
2023-01-29T13:05:37.499Z,100660.97
2023-01-29T13:08:53.566Z,100656.75
2023-01-29T13:11:48.081Z,100649.94
2023-01-29T13:14:23.494Z,100649.13
2023-01-29T13:17:01.235Z,100646.63
2023-01-29T13:19:38.480Z,100645.03
2023-01-29T13:22:22.079Z,100643.31
2023-01-29T13:25:03.312Z,100642.47
2023-01-29T13:27:34.704Z,100642.47
2023-01-29T13:30:02.027Z,100632.34
2023-01-29T13:32:35.600Z,100631.47
2023-01-29T13:35:13.957Z,100620.44
2023-01-29T13:37:53.593Z,100612.00
2023-01-29T13:40:34.434Z,100615.28
2023-01-29T13:43:03.346Z,100605.97
2023-01-29T13:45:45.015Z,100594.16
2023-01-29T13:48:32.408Z,100584.06
2023-01-29T13:51:15.387Z,100578.06
2023-01-29T13:53:44.146Z,100573.81
2023-01-29T13:56:35.188Z,100577.13
2023-01-29T13:59:06.445Z,100591.34
2023-01-29T14:01:48.226Z,100590.50
2023-01-29T14:04:29.071Z,100596.44
2023-01-29T14:07:00.157Z,100602.34
2023-01-29T14:10:20.869Z,100611.63
2023-01-29T14:12:52.704Z,100611.59
2023-01-29T14:15:30.647Z,100613.28
2023-01-29T14:18:08.677Z,100608.22
2023-01-29T14:20:48.507Z,100609.91
2023-01-29T14:23:42.852Z,100608.19
2023-01-29T14:26:31.911Z,100618.25
2023-01-29T14:29:00.851Z,100626.63
2023-01-29T14:31:42.808Z,100612.28
2023-01-29T14:34:34.939Z,100614.78
2023-01-29T14:37:20.691Z,100614.59
2023-01-29T14:40:07.195Z,100614.56
2023-01-29T14:42:43.665Z,100617.03
2023-01-29T14:45:34.227Z,100615.31
2023-01-29T14:48:11.119Z,100616.06
2023-01-29T14:50:41.769Z,100613.50
2023-01-29T14:53:40.157Z,100613.44
2023-01-29T14:56:40.550Z,100608.28
2023-01-29T14:59:21.683Z,100622.44
2023-01-29T15:01:57.756Z,100615.56
2023-01-29T15:04:43.041Z,100611.97
2023-01-29T15:07:09.684Z,100615.13
2023-01-29T15:09:48.017Z,100612.47
2023-01-29T15:12:52.690Z,100625.81
2023-01-29T15:15:54.188Z,100622.31
2023-01-29T15:18:42.293Z,100619.66
2023-01-29T15:21:16.149Z,100632.16
2023-01-29T15:23:44.496Z,100622.00
2023-01-29T15:26:19.435Z,100627.81
2023-01-29T15:29:04.149Z,100630.19
2023-01-29T15:31:32.263Z,100630.00
2023-01-29T15:34:06.180Z,100629.91
2023-01-29T15:36:33.679Z,100624.69
2023-01-29T15:39:09.411Z,100623.63
2023-01-29T15:41:36.370Z,100624.34
2023-01-29T15:44:03.151Z,100624.19
2023-01-29T15:46:43.581Z,100618.16
2023-01-29T15:49:27.113Z,100620.56
2023-01-29T15:51:58.631Z,100611.06
2023-01-29T15:54:30.980Z,100610.13
2023-01-29T15:56:59.582Z,100591.47
2023-01-29T15:59:35.077Z,100582.97
2023-01-29T16:02:34.213Z,100582.88
2023-01-29T16:05:01.729Z,100580.94
2023-01-29T16:07:30.060Z,100577.56
2023-01-29T16:09:58.709Z,100583.38
2023-01-29T16:12:25.871Z,100592.63
2023-01-29T16:14:53.213Z,100579.91
2023-01-29T16:17:37.360Z,100580.69
2023-01-29T16:20:20.227Z,100573.91
2023-01-29T16:22:47.370Z,100578.84
2023-01-29T16:25:16.584Z,100578.75
2023-01-29T16:27:44.360Z,100582.03
2023-01-29T16:30:16.943Z,100576.94
2023-01-29T16:32:43.853Z,100574.34
2023-01-29T16:35:17.186Z,100566.75
2023-01-29T16:37:50.829Z,100579.28
2023-01-29T16:40:33.110Z,100568.31
2023-01-29T16:43:18.013Z,100561.16
2023-01-29T16:46:04.497Z,100565.25
2023-01-29T16:48:34.707Z,100555.63
2023-01-29T16:51:14.725Z,100549.44
2023-01-29T16:53:58.040Z,100544.16
2023-01-29T16:56:28.896Z,100535.59
2023-01-29T16:58:56.638Z,100530.41
2023-01-29T17:01:28.326Z,100521.13
2023-01-29T17:04:19.320Z,100524.34
2023-01-29T17:06:56.486Z,100517.56
2023-01-29T17:09:32.508Z,100525.06
2023-01-29T17:12:05.322Z,100530.09
2023-01-29T17:14:34.334Z,100532.59
2023-01-29T17:17:15.981Z,100529.13
2023-01-29T17:19:42.738Z,100535.78
2023-01-29T17:22:14.909Z,100531.56
2023-01-29T17:24:42.584Z,100522.31
2023-01-29T17:27:23.031Z,100518.97
2023-01-29T17:29:49.792Z,100513.88
2023-01-29T17:32:18.739Z,100508.00
2023-01-29T17:34:46.848Z,100508.00
2023-01-29T17:37:15.867Z,100507.91
2023-01-29T17:39:43.854Z,100506.19
2023-01-29T17:42:15.079Z,100486.00
2023-01-29T17:44:43.102Z,100492.63
2023-01-29T17:47:16.632Z,100490.81
2023-01-29T17:49:43.374Z,100494.91
2023-01-29T17:52:10.348Z,100494.81
2023-01-29T17:54:37.147Z,100496.50
2023-01-29T17:57:04.118Z,100493.97
2023-01-29T17:59:33.408Z,100493.09
2023-01-29T18:02:00.462Z,100493.94
2023-01-29T18:04:27.317Z,100493.03
2023-01-29T18:06:57.432Z,100486.25
2023-01-29T18:09:24.603Z,100492.84
2023-01-29T18:11:52.931Z,100471.13
2023-01-29T18:14:20.175Z,100477.78
2023-01-29T18:16:47.528Z,100470.31
2023-01-29T18:19:19.404Z,100483.78
2023-01-29T18:21:46.668Z,100459.56
2023-01-29T18:24:13.358Z,100465.47
2023-01-29T18:26:40.106Z,100461.31
2023-01-29T18:29:06.926Z,100459.69
2023-01-29T18:31:33.726Z,100450.50
2023-01-29T18:34:00.476Z,100452.25
2023-01-29T18:36:27.280Z,100462.34
2023-01-29T18:38:54.512Z,100459.13
2023-01-29T18:41:21.211Z,100459.13
2023-01-29T18:43:47.936Z,100447.47
2023-01-29T18:46:14.900Z,100437.34
2023-01-29T18:48:42.782Z,100438.22
2023-01-29T18:51:10.122Z,100439.00
2023-01-29T18:53:36.845Z,100429.88
2023-01-29T18:56:05.982Z,100423.25
2023-01-29T18:58:36.196Z,100422.50
2023-01-29T19:01:09.443Z,100425.03
2023-01-29T19:03:36.521Z,100420.00
2023-01-29T19:06:06.351Z,100425.03
2023-01-29T19:08:34.017Z,100419.16
2023-01-29T19:11:03.787Z,100425.03
2023-01-29T19:13:32.162Z,100412.47
2023-01-29T19:15:59.000Z,100412.47
2023-01-29T19:18:26.877Z,100415.00
2023-01-29T19:20:54.421Z,100398.22
2023-01-29T19:23:22.233Z,100415.84
2023-01-29T19:25:49.095Z,100415.00
2023-01-29T19:28:15.908Z,100418.38
2023-01-29T19:30:42.700Z,100414.19
2023-01-29T19:33:10.647Z,100407.53
2023-01-29T19:35:37.439Z,100399.91
2023-01-29T19:38:04.852Z,100400.78
2023-01-29T19:40:31.657Z,100402.41
2023-01-29T19:42:58.636Z,100394.06
2023-01-29T19:45:49.781Z,100383.22
2023-01-29T19:48:14.466Z,100373.13
2023-01-29T19:50:42.328Z,100378.22
2023-01-29T19:53:09.714Z,100374.00
2023-01-29T19:55:36.549Z,100362.34
2023-01-29T19:58:04.642Z,100362.41
2023-01-29T20:00:31.498Z,100351.59
2023-01-29T20:02:58.216Z,100350.81
2023-01-29T20:05:27.005Z,100349.22
2023-01-29T20:07:53.863Z,100342.53
2023-01-29T20:10:21.211Z,100336.72
2023-01-29T20:12:48.283Z,100335.09
2023-01-29T20:15:15.615Z,100317.44
2023-01-29T20:17:45.399Z,100323.34
2023-01-29T20:20:12.421Z,100314.19
2023-01-29T20:22:39.138Z,100320.06
2023-01-29T20:25:06.387Z,100308.31
2023-01-29T20:27:33.111Z,100309.16
2023-01-29T20:29:59.803Z,100299.16
2023-01-29T20:32:26.578Z,100301.69
2023-01-29T20:34:53.341Z,100290.84
2023-01-29T20:37:20.373Z,100289.16
2023-01-29T20:39:47.604Z,100275.84
2023-01-29T20:42:14.465Z,100272.50
2023-01-29T20:44:41.278Z,100259.97
2023-01-29T20:47:08.509Z,100245.72
2023-01-29T20:49:35.486Z,100244.91
2023-01-29T20:52:02.206Z,100248.31
2023-01-29T20:54:29.993Z,100240.78
2023-01-29T20:56:57.050Z,100250.06
2023-01-29T20:59:23.908Z,100245.88
2023-01-29T21:01:50.704Z,100233.31
2023-01-29T21:04:17.488Z,100228.28
2023-01-29T21:06:44.184Z,100233.34
2023-01-29T21:09:10.889Z,100235.84
2023-01-29T21:11:37.625Z,100240.97
2023-01-29T21:14:04.484Z,100239.38
2023-01-29T21:16:31.353Z,100242.78
2023-01-29T21:18:58.949Z,100248.66
2023-01-29T21:21:26.567Z,100245.34
2023-01-29T21:23:53.856Z,100249.56
2023-01-29T21:26:20.794Z,100240.34
2023-01-29T21:28:47.546Z,100236.97
2023-01-29T21:31:16.789Z,100223.63
2023-01-29T21:33:44.272Z,100231.22
2023-01-29T21:36:11.927Z,100232.88
2023-01-29T21:38:39.534Z,100226.19
2023-01-29T21:41:09.637Z,100222.03
2023-01-29T21:43:37.354Z,100207.78
2023-01-29T21:46:11.651Z,100198.56
2023-01-29T21:48:40.155Z,100196.13
2023-01-29T21:51:08.193Z,100206.13
2023-01-29T21:53:36.537Z,100220.41
2023-01-29T21:56:05.586Z,100212.03
2023-01-29T21:58:32.959Z,100217.06
2023-01-29T22:01:36.225Z,100232.19
2023-01-29T22:03:47.500Z,100247.28
2023-01-29T22:06:15.203Z,100253.22
2023-01-29T22:08:41.932Z,100253.31
2023-01-29T22:11:08.925Z,100248.31
2023-01-29T22:13:35.903Z,100242.50
2023-01-29T22:16:02.655Z,100254.28
2023-01-29T22:18:29.371Z,100252.69
2023-01-29T22:20:57.448Z,100252.72
2023-01-29T22:23:24.453Z,100246.09
2023-01-29T22:25:51.184Z,100242.72
2023-01-29T22:28:18.659Z,100238.56
2023-01-29T22:30:45.566Z,100250.34
2023-01-29T22:33:12.383Z,100235.25
2023-01-29T22:35:39.141Z,100228.53
2023-01-29T22:38:06.438Z,100217.56
2023-01-29T22:40:33.185Z,100215.94
2023-01-29T22:42:59.980Z,100236.91
2023-01-29T22:45:27.218Z,100236.06
2023-01-29T22:47:53.931Z,100229.38
2023-01-29T22:50:20.991Z,100229.34
2023-01-29T22:52:53.813Z,100216.75
2023-01-29T22:55:20.941Z,100228.50
2023-01-29T22:57:50.624Z,100232.72
2023-01-29T23:00:18.583Z,100203.34
2023-01-29T23:02:49.909Z,100191.56
2023-01-29T23:05:17.782Z,100181.53
2023-01-29T23:07:45.675Z,100179.00
2023-01-29T23:10:16.881Z,100179.94
2023-01-29T23:12:43.789Z,100153.09
2023-01-29T23:15:10.616Z,100133.81
2023-01-29T23:17:39.525Z,100113.72
2023-01-29T23:20:07.207Z,100134.69
2023-01-29T23:22:34.046Z,100117.03
2023-01-29T23:25:02.633Z,100101.94
2023-01-29T23:27:29.380Z,100107.09
2023-01-29T23:29:56.114Z,100100.38
2023-01-29T23:32:22.889Z,100137.31
2023-01-29T23:34:49.660Z,100127.28
2023-01-29T23:37:16.451Z,100128.13
2023-01-29T23:39:43.248Z,100111.34
2023-01-29T23:42:10.061Z,100097.88
2023-01-29T23:44:36.811Z,100110.47
2023-01-29T23:47:03.751Z,100130.63
2023-01-29T23:49:30.464Z,100117.25
2023-01-29T23:51:57.395Z,100122.28
2023-01-29T23:54:24.359Z,100113.94
2023-01-29T23:56:51.257Z,100108.06
2023-01-29T23:59:18.851Z,100118.16
